Time;durP1;ratioP1;P1;durP2;ratioP2;P2;SDS_P1;SDS_P2;PMS_P1;PMS_P2;Temp;Humidity;BMP_temperature;BMP_pressure;BME280_temperature;BME280_humidity;BME280_pressure;Samples;Min_cycle;Max_cycle;Signal;HPM_P1;HPM_P2
2022/12/14 00:01:18;;;;;;;7.18;3.90;;;;;;;-0.67;100.00;98289.88;5056304;28;20545;-48
2022/12/14 00:03:45;;;;;;;7.95;4.18;;;;;;;-0.66;100.00;98283.91;5092814;28;20065;-46
2022/12/14 00:06:18;;;;;;;6.82;4.10;;;;;;;-0.86;100.00;98245.03;5098307;28;20039;-44
2022/12/14 00:08:45;;;;;;;8.55;3.90;;;;;;;-0.72;100.00;98275.47;5093695;28;20024;-43
2022/12/14 00:11:13;;;;;;;7.68;3.85;;;;;;;-0.78;100.00;98270.44;5095944;28;20426;-44
2022/12/14 00:13:40;;;;;;;6.07;4.00;;;;;;;-0.97;100.00;98247.72;5096233;28;20051;-49
2022/12/14 00:16:11;;;;;;;6.88;4.50;;;;;;;-0.93;100.00;98259.56;5095736;28;20433;-46
2022/12/14 00:18:37;;;;;;;5.50;3.38;;;;;;;-0.83;100.00;98273.06;5100324;28;20139;-45
2022/12/14 00:21:06;;;;;;;6.65;3.60;;;;;;;-1.00;100.00;98272.44;5096740;28;20117;-45
2022/12/14 00:23:32;;;;;;;8.65;4.45;;;;;;;-1.22;100.00;98265.84;5084649;28;20048;-45
2022/12/14 00:25:58;;;;;;;11.18;4.20;;;;;;;-1.26;100.00;98256.56;5089002;28;20027;-45
2022/12/14 00:28:24;;;;;;;8.63;4.15;;;;;;;-1.45;100.00;98259.28;5093961;28;20435;-49
2022/12/14 00:30:56;;;;;;;8.73;4.47;;;;;;;-1.62;100.00;98261.13;5105071;28;20051;-45
2022/12/14 00:33:22;;;;;;;8.95;4.80;;;;;;;-1.72;100.00;98264.63;5087299;27;20073;-45
2022/12/14 00:35:48;;;;;;;8.55;4.22;;;;;;;-1.72;100.00;98269.69;5076387;28;20511;-45
2022/12/14 00:38:14;;;;;;;8.50;4.35;;;;;;;-1.86;100.00;98254.56;5077979;28;20044;-46
2022/12/14 00:40:40;;;;;;;11.68;5.32;;;;;;;-1.91;100.00;98256.28;5107152;28;20048;-45
2022/12/14 00:43:06;;;;;;;11.18;5.00;;;;;;;-1.87;100.00;98257.09;5099996;27;20064;-44
2022/12/14 00:45:32;;;;;;;9.13;4.55;;;;;;;-1.87;100.00;98257.09;5080951;28;20085;-43
2022/12/14 00:47:58;;;;;;;11.27;4.65;;;;;;;-1.88;100.00;98263.88;5105707;28;20108;-42
2022/12/14 00:50:23;;;;;;;11.43;5.28;;;;;;;-2.13;100.00;98219.09;5091099;28;20097;-47
2022/12/14 00:52:50;;;;;;;10.15;4.70;;;;;;;-2.20;100.00;98225.13;5086519;28;20126;-46
2022/12/14 00:55:15;;;;;;;13.82;5.15;;;;;;;-1.93;100.00;98258.00;5071967;28;20087;-46
2022/12/14 00:57:41;;;;;;;9.52;4.57;;;;;;;-2.00;100.00;98251.28;5107550;28;20523;-46
2022/12/14 01:00:08;;;;;;;10.52;4.85;;;;;;;-2.23;100.00;98207.31;5103473;28;20043;-48
2022/12/14 01:02:34;;;;;;;12.18;4.88;;;;;;;-1.95;100.00;98241.91;5106960;28;20703;-47
2022/12/14 01:04:59;;;;;;;7.82;4.07;;;;;;;-1.90;100.00;98236.75;5086511;28;20042;-48
2022/12/14 01:07:26;;;;;;;11.90;4.93;;;;;;;-1.90;100.00;98229.13;5091249;28;20067;-47
2022/12/14 01:09:52;;;;;;;10.68;4.93;;;;;;;-2.16;100.00;98192.00;5064190;28;20487;-46
2022/12/14 01:12:18;;;;;;;10.27;4.88;;;;;;;-2.15;100.00;98193.66;5094106;28;20035;-44
2022/12/14 01:14:45;;;;;;;10.07;5.07;;;;;;;-1.89;100.00;98213.84;5096855;28;20560;-49
2022/12/14 01:17:11;;;;;;;9.07;4.50;;;;;;;-1.89;100.00;98200.25;5099159;28;20418;-49
2022/12/14 01:19:37;;;;;;;18.85;4.88;;;;;;;-1.95;100.00;98177.41;5105214;28;20050;-45
2022/12/14 01:22:03;;;;;;;9.32;4.72;;;;;;;-1.85;100.00;98176.44;5107602;28;20127;-46
2022/12/14 01:24:28;;;;;;;10.18;4.85;;;;;;;-1.88;100.00;98153.53;5099485;28;20044;-46
2022/12/14 01:26:54;;;;;;;10.68;5.05;;;;;;;-1.62;100.00;98202.53;5094420;28;20035;-47
2022/12/14 01:29:20;;;;;;;14.77;5.50;;;;;;;-1.64;100.00;98199.16;5101426;28;20040;-45
2022/12/14 01:31:46;;;;;;;11.45;4.65;;;;;;;-1.73;100.00;98200.09;5108133;28;20054;-45
2022/12/14 01:34:12;;;;;;;9.27;4.93;;;;;;;-1.78;100.00;98193.38;5087016;28;20495;-46
2022/12/14 01:36:38;;;;;;;10.60;4.32;;;;;;;-1.77;100.00;98190.78;5107558;28;20043;-46
2022/12/14 01:39:08;;;;;;;10.05;4.43;;;;;;;-1.77;100.00;98189.94;5044847;28;21277;-45
2022/12/14 01:41:40;;;;;;;7.90;4.30;;;;;;;-1.81;100.00;98188.28;5092232;28;20047;-47
2022/12/14 01:44:09;;;;;;;11.25;5.03;;;;;;;-1.77;100.00;98185.69;5098546;28;20983;-46
2022/12/14 01:46:40;;;;;;;12.70;4.95;;;;;;;-1.95;100.00;98157.88;5090786;28;20698;-45
2022/12/14 01:49:09;;;;;;;10.05;4.50;;;;;;;-1.78;100.00;98203.56;5102285;28;20487;-44
2022/12/14 01:51:35;;;;;;;11.73;4.93;;;;;;;-1.88;100.00;98187.50;5097375;28;20071;-44
2022/12/14 01:54:03;;;;;;;9.52;4.47;;;;;;;-1.92;100.00;98187.53;5085542;28;20044;-43
2022/12/14 01:56:29;;;;;;;13.15;5.30;;;;;;;-1.92;100.00;98187.53;5089061;28;20089;-46
2022/12/14 01:58:58;;;;;;;8.50;4.50;;;;;;;-1.84;100.00;98180.69;5119591;27;20059;-44
2022/12/14 02:01:24;;;;;;;11.45;5.55;;;;;;;-1.80;100.00;98170.47;5089856;28;20043;-45
2022/12/14 02:03:50;;;;;;;10.43;4.25;;;;;;;-1.99;100.00;98133.28;5108163;28;20043;-45
2022/12/14 02:06:20;;;;;;;10.88;5.10;;;;;;;-1.88;100.00;98171.38;5102300;28;20047;-45
2022/12/14 02:08:47;;;;;;;9.27;4.95;;;;;;;-1.79;100.00;98158.56;5109634;28;20032;-45
2022/12/14 02:11:18;;;;;;;11.05;5.10;;;;;;;-1.71;100.00;98146.59;5088211;28;20131;-45
2022/12/14 02:13:44;;;;;;;11.18;5.35;;;;;;;-1.69;100.00;98149.13;5062673;28;20067;-44
2022/12/14 02:16:10;;;;;;;12.60;5.22;;;;;;;-1.67;100.00;98155.06;5100856;28;20070;-43
2022/12/14 02:18:36;;;;;;;12.63;5.03;;;;;;;-1.76;100.00;98145.78;5108732;28;20066;-48
2022/12/14 02:21:05;;;;;;;13.07;5.10;;;;;;;-1.76;100.00;98143.25;5096533;28;20082;-45
2022/12/14 02:23:49;;;;;;;12.77;5.47;;;;;;;-1.77;100.00;98151.75;5091055;28;20043;-46
2022/12/14 02:27:03;;;;;;;9.32;4.93;;;;;;;-1.84;100.00;98135.69;5091367;28;20569;-44
2022/12/14 02:29:39;;;;;;;9.95;5.35;;;;;;;-1.81;100.00;98125.47;5092728;28;20980;-47
2022/12/14 02:32:20;;;;;;;11.50;5.50;;;;;;;-1.83;100.00;98133.97;5111131;28;20043;-45
2022/12/14 02:35:07;;;;;;;7.72;4.72;;;;;;;-1.85;100.00;98134.00;5107671;27;20039;-44
2022/12/14 02:37:53;;;;;;;12.07;5.13;;;;;;;-1.83;100.00;98139.06;5107929;28;20054;-46
2022/12/14 02:40:37;;;;;;;9.13;5.38;;;;;;;-1.82;100.00;98128.88;5088482;28;20047;-44
2022/12/14 02:43:18;;;;;;;9.20;4.93;;;;;;;-1.79;100.00;98122.91;5089731;28;20044;-46
2022/12/14 02:46:05;;;;;;;10.82;5.65;;;;;;;-1.78;100.00;98127.16;5101271;28;20583;-46
2022/12/14 02:49:05;;;;;;;9.32;4.45;;;;;;;-1.79;100.00;98131.41;5083060;28;20043;-46
2022/12/14 02:51:35;;;;;;;;;;;;;;;-1.77;100.00;98129.66;5099743;28;20054;-45
2022/12/14 02:54:07;;;;;;;14.95;6.15;;;;;;;-1.77;100.00;98142.41;5100201;28;19951;-45
2022/12/14 02:56:36;;;;;;;13.05;5.18;;;;;;;-1.73;100.00;98145.78;5099891;28;20035;-45
2022/12/14 02:59:06;;;;;;;10.95;4.95;;;;;;;-1.80;100.00;98139.91;5091693;28;20048;-48
2022/12/14 03:01:33;;;;;;;10.73;5.13;;;;;;;-1.92;100.00;98113.69;5099839;28;20139;-46
2022/12/14 03:04:00;;;;;;;10.90;4.95;;;;;;;-1.85;100.00;98118.72;5088534;28;20043;-44
2022/12/14 03:06:26;;;;;;;11.65;5.32;;;;;;;-2.05;100.00;98079.03;5110555;28;20103;-43
2022/12/14 03:09:09;;;;;;;12.05;5.20;;;;;;;-1.87;100.00;98092.41;5096394;28;20131;-46
2022/12/14 03:11:45;;;;;;;11.95;5.88;;;;;;;-1.84;100.00;98110.22;5093592;28;20074;-45
2022/12/14 03:14:18;;;;;;;11.63;5.50;;;;;;;-1.82;100.00;98100.84;5099411;28;20036;-46
2022/12/14 03:16:48;;;;;;;11.18;5.13;;;;;;;-1.88;100.00;98087.34;5063801;28;20465;-45
2022/12/14 03:19:17;;;;;;;;;;;;;;;-1.86;100.00;98090.72;5110099;28;20070;-46
2022/12/14 03:21:45;;;;;;;;;;;;;;;-1.87;100.00;98087.31;5100124;28;19919;-46
2022/12/14 03:24:15;;;;;;;11.48;4.40;;;;;;;-1.89;100.00;98090.75;5106815;28;19919;-46
2022/12/14 03:26:50;;;;;;;11.98;5.68;;;;;;;-1.87;100.00;98076.28;5083340;28;20036;-45
2022/12/14 03:29:26;;;;;;;12.95;5.65;;;;;;;-1.86;100.00;98080.53;5099240;28;20123;-47
2022/12/14 03:31:57;;;;;;;12.93;5.45;;;;;;;-1.89;100.00;98083.97;5095148;28;20122;-45
2022/12/14 03:34:28;;;;;;;10.52;4.90;;;;;;;-1.94;100.00;98079.78;5121260;27;20043;-45
2022/12/14 03:37:26;;;;;;;10.02;4.78;;;;;;;-1.89;100.00;98075.47;5108078;28;20593;-47
2022/12/14 03:39:52;;;;;;;13.38;5.72;;;;;;;-1.92;100.00;98073.78;5092501;28;20043;-44
2022/12/14 03:42:36;;;;;;;8.73;4.95;;;;;;;-1.85;100.00;98077.13;5073923;28;20379;-45
2022/12/14 03:45:16;;;;;;;10.73;5.25;;;;;;;-1.83;100.00;98075.38;5098244;28;20126;-45
2022/12/14 03:48:15;;;;;;;12.70;5.10;;;;;;;-1.84;100.00;98073.72;5090638;28;20043;-51
2022/12/14 03:50:45;;;;;;;;;;;;;;;-1.86;100.00;98061.00;5080199;28;20050;-46
2022/12/14 03:53:23;;;;;;;12.27;5.07;;;;;;;-2.15;100.00;98057.94;5101818;28;19970;-47
2022/12/14 03:56:04;;;;;;;9.90;4.90;;;;;;;-2.33;99.18;98065.72;5077559;28;20043;-47
2022/12/14 03:58:53;;;;;;;12.35;5.35;;;;;;;-2.33;98.23;98053.00;5102189;28;20058;-45
2022/12/14 04:01:39;;;;;;;10.45;5.05;;;;;;;-2.33;97.87;98056.41;5125095;27;20436;-44
2022/12/14 04:04:25;;;;;;;13.50;4.93;;;;;;;-2.37;96.71;98069.16;5091979;28;20055;-47
2022/12/14 04:07:16;;;;;;;12.70;5.53;;;;;;;-2.37;96.44;98067.47;5094362;28;20046;-47
2022/12/14 04:09:50;;;;;;;17.08;5.80;;;;;;;-2.29;96.13;98080.09;5094536;28;20027;-46
2022/12/14 04:20:58;;;;;;;12.90;5.78;;;;;;;-2.21;94.27;98058.00;5088496;28;20032;-44
2022/12/14 04:26:15;;;;;;;13.20;5.05;;;;;;;-2.26;92.76;98057.19;5098984;28;20127;-45
2022/12/14 04:31:31;;;;;;;13.63;6.30;;;;;;;-2.47;90.93;98048.06;5107653;28;20046;-49
2022/12/14 04:34:01;;;;;;;13.02;6.05;;;;;;;-2.66;90.31;98006.66;5073756;28;20549;-47
2022/12/14 04:36:29;;;;;;;12.55;5.95;;;;;;;-2.38;89.94;98039.50;5101599;28;20063;-44
2022/12/14 04:39:01;;;;;;;14.85;6.28;;;;;;;-2.43;89.05;98046.31;5103036;28;20046;-47
2022/12/14 04:41:31;;;;;;;10.82;5.35;;;;;;;-2.63;88.54;98015.97;5102096;28;20248;-45
2022/12/14 04:43:59;;;;;;;10.02;5.30;;;;;;;-2.54;87.96;98054.03;5089030;28;20047;-45
2022/12/14 04:46:27;;;;;;;12.32;5.70;;;;;;;-2.67;87.01;98060.94;5086821;28;20127;-46
2022/12/14 04:48:54;;;;;;;11.77;4.93;;;;;;;-2.70;86.52;98057.56;5098542;28;20062;-44
2022/12/14 04:51:34;;;;;;;11.52;5.50;;;;;;;-2.68;86.12;98063.50;5100340;28;21053;-44
2022/12/14 04:54:10;;;;;;;;;;;;;;;-2.58;85.97;98057.47;5087884;28;20044;-48
2022/12/14 04:56:45;;;;;;;12.57;5.68;;;;;;;-2.57;85.94;98051.53;5087704;28;19915;-49
2022/12/14 04:59:13;;;;;;;9.25;4.68;;;;;;;-2.58;85.76;98055.78;5103364;28;20052;-45
2022/12/14 05:01:41;;;;;;;10.40;4.85;;;;;;;-2.65;85.53;98060.91;5095206;28;20196;-46
2022/12/14 05:04:55;;;;;;;10.33;5.07;;;;;;;-2.76;85.05;98057.63;5104960;28;20481;-45
2022/12/14 05:07:31;;;;;;;13.50;5.50;;;;;;;-2.65;85.42;98063.47;5013987;28;20357;-46
2022/12/14 05:10:02;;;;;;;11.07;5.22;;;;;;;-2.52;85.46;98054.03;5087256;28;20044;-43
2022/12/14 05:12:31;;;;;;;13.27;5.45;;;;;;;-2.60;84.92;98064.28;5072683;28;20028;-44
2022/12/14 05:15:06;;;;;;;12.70;4.78;;;;;;;-2.48;85.11;98059.09;5091715;28;20093;-47
2022/12/14 05:17:39;;;;;;;12.07;5.85;;;;;;;-2.43;85.18;98049.72;5104606;28;20044;-44
2022/12/14 05:20:13;;;;;;;12.95;5.57;;;;;;;-2.37;85.21;98052.19;5105307;28;20096;-44
2022/12/14 05:22:39;;;;;;;13.02;5.22;;;;;;;-2.44;84.80;98055.66;5094773;28;20059;-42
2022/12/14 05:25:05;;;;;;;11.27;5.03;;;;;;;-2.52;84.57;98047.25;5099764;28;20043;-45
2022/12/14 05:27:31;;;;;;;15.93;5.85;;;;;;;-2.61;84.30;98054.94;5097904;28;21549;-44
2022/12/14 05:29:57;;;;;;;12.27;5.75;;;;;;;-2.54;84.46;98053.19;5073349;28;20096;-43
2022/12/14 05:32:23;;;;;;;11.95;5.32;;;;;;;-2.44;84.44;98044.63;5099893;28;20078;-45
2022/12/14 05:34:49;;;;;;;13.80;6.03;;;;;;;-2.38;84.16;98042.88;5082573;28;20390;-43
2022/12/14 05:37:15;;;;;;;12.45;5.88;;;;;;;-2.28;84.23;98043.63;5093209;28;20525;-46
2022/12/14 05:39:41;;;;;;;11.25;5.93;;;;;;;-2.23;84.40;98044.44;5094357;28;20047;-45
2022/12/14 05:42:06;;;;;;;16.23;6.57;;;;;;;-2.38;84.63;98014.03;5076935;28;20130;-47
2022/12/14 05:44:32;;;;;;;13.82;5.80;;;;;;;-2.29;84.53;98041.94;5090600;28;20486;-45
2022/12/14 05:46:58;;;;;;;13.95;6.28;;;;;;;-2.39;84.22;98037.78;5106265;28;20122;-46
2022/12/14 05:49:24;;;;;;;12.05;5.45;;;;;;;-2.33;84.14;98045.38;5090290;28;20526;-46
2022/12/14 05:51:50;;;;;;;13.68;6.10;;;;;;;-2.24;84.29;98045.28;5082834;28;20040;-46
2022/12/14 05:54:16;;;;;;;14.25;6.55;;;;;;;-2.18;84.79;98045.22;5074974;28;20051;-46
2022/12/14 05:56:42;;;;;;;12.55;5.95;;;;;;;-2.13;84.54;98048.56;5092571;28;20039;-46
2022/12/14 05:59:14;;;;;;;14.23;6.35;;;;;;;-2.09;84.48;98050.22;5079498;28;20052;-48
2022/12/14 06:01:41;;;;;;;15.38;5.80;;;;;;;-2.09;84.43;98034.94;5099947;27;20078;-47
2022/12/14 06:04:07;;;;;;;13.18;6.50;;;;;;;-2.06;84.43;98039.16;5090589;28;20047;-48
2022/12/14 06:06:33;;;;;;;14.05;5.60;;;;;;;-2.06;84.61;98034.06;5097149;28;20418;-44
2022/12/14 06:08:59;;;;;;;14.40;6.53;;;;;;;-1.98;84.70;98043.31;5102637;28;20219;-46
2022/12/14 06:11:25;;;;;;;11.77;6.18;;;;;;;-1.90;84.57;98046.63;5074703;28;20047;-45
2022/12/14 06:13:51;;;;;;;12.32;5.85;;;;;;;-2.20;84.17;97996.06;5073048;28;20412;-46
2022/12/14 06:16:25;;;;;;;14.07;6.72;;;;;;;-1.93;84.16;98044.09;5108171;27;20043;-48
2022/12/14 06:18:56;;;;;;;12.20;6.57;;;;;;;-1.89;84.07;98043.22;5103427;28;20365;-47
2022/12/14 06:21:28;;;;;;;16.58;6.57;;;;;;;-1.84;84.10;98046.56;5093168;28;20072;-49
2022/12/14 06:23:54;;;;;;;17.10;6.22;;;;;;;-1.77;83.93;98039.66;5093633;28;20036;-47
2022/12/14 06:26:21;;;;;;;13.88;6.60;;;;;;;-1.78;83.50;98043.91;5110223;28;20039;-47
2022/12/14 06:28:46;;;;;;;13.77;7.25;;;;;;;-1.76;83.79;98044.75;5091454;28;20043;-48
2022/12/14 06:31:15;;;;;;;16.35;7.15;;;;;;;-1.94;83.78;98014.44;5090265;28;20431;-44
2022/12/14 06:33:41;;;;;;;18.15;7.40;;;;;;;-1.70;83.75;98048.94;5090768;28;20039;-48
2022/12/14 06:36:22;;;;;;;14.45;6.68;;;;;;;-1.79;83.43;98026.97;5093519;28;20486;-46
2022/12/14 06:38:50;;;;;;;15.25;6.50;;;;;;;-1.78;83.19;98030.38;5073111;28;20486;-47
2022/12/14 06:41:16;;;;;;;11.52;6.60;;;;;;;-1.86;82.87;98055.91;5090621;28;20423;-45
2022/12/14 06:43:42;;;;;;;16.10;6.95;;;;;;;-1.74;83.17;98068.50;5102965;28;20040;-46
2022/12/14 06:46:09;;;;;;;17.10;6.85;;;;;;;-1.80;83.05;98062.63;5057726;28;20066;-47
2022/12/14 06:48:35;;;;;;;15.82;6.72;;;;;;;-1.83;83.11;98077.94;5099987;28;20039;-43
2022/12/14 06:51:05;;;;;;;14.15;6.97;;;;;;;-1.93;83.03;98086.53;5099437;28;20040;-44
2022/12/14 06:53:32;;;;;;;15.02;6.53;;;;;;;-2.32;82.78;98049.63;5098381;28;20039;-46
2022/12/14 06:56:25;;;;;;;14.65;6.88;;;;;;;-2.21;83.16;98086.84;5076984;28;20530;-45
2022/12/14 06:58:54;;;;;;;16.75;7.38;;;;;;;-2.33;83.14;98060.63;5086921;28;20044;-48
2022/12/14 07:01:21;;;;;;;;;;;;;;;-2.17;83.03;98085.94;5074125;28;20047;-44
2022/12/14 07:03:49;;;;;;;19.95;7.63;;;;;;;-2.17;83.09;98085.94;5091762;28;20268;-45
2022/12/14 07:06:15;;;;;;;16.98;7.18;;;;;;;-2.06;83.28;98079.91;5090188;28;20044;-46
2022/12/14 07:08:41;;;;;;;13.95;7.25;;;;;;;-1.92;83.24;98078.91;5107542;27;20457;-44
2022/12/14 07:11:10;;;;;;;16.02;6.65;;;;;;;-1.86;83.12;98081.38;5095678;28;20043;-45
2022/12/14 07:13:36;;;;;;;12.65;6.28;;;;;;;-1.84;83.55;98087.31;5104531;28;20050;-45
2022/12/14 07:16:03;;;;;;;16.10;6.82;;;;;;;-1.79;83.42;98095.75;5090074;28;20043;-45
2022/12/14 07:18:33;;;;;;;16.88;6.95;;;;;;;-1.87;83.33;98105.16;5107194;28;20113;-48
2022/12/14 07:21:10;;;;;;;17.00;6.85;;;;;;;-1.82;83.21;98102.56;5063968;28;20044;-45
2022/12/14 07:23:37;;;;;;;15.25;7.50;;;;;;;-1.72;83.17;98107.53;5089542;28;20115;-46
2022/12/14 07:26:04;;;;;;;12.95;6.70;;;;;;;-1.67;83.03;98106.66;5089846;28;20047;-44
2022/12/14 07:28:30;;;;;;;16.33;7.40;;;;;;;-1.59;83.24;98113.34;5093929;28;20047;-45
2022/12/14 07:30:58;;;;;;;17.02;7.78;;;;;;;-1.53;83.22;98120.06;5091585;28;20040;-47
2022/12/14 07:33:24;;;;;;;15.05;7.63;;;;;;;-1.68;83.04;98121.09;5068898;28;20101;-45
2022/12/14 07:35:50;;;;;;;17.48;7.38;;;;;;;-1.61;83.71;98124.41;5111401;28;20095;-43
2022/12/14 07:38:17;;;;;;;18.00;7.40;;;;;;;-1.49;83.48;98129.38;5098489;28;20042;-47
2022/12/14 07:40:43;;;;;;;17.88;7.95;;;;;;;-1.47;83.45;98133.59;5077468;28;20053;-46
2022/12/14 07:43:09;;;;;;;15.50;7.57;;;;;;;-1.45;83.40;98134.41;5057323;28;20117;-44
2022/12/14 07:45:36;;;;;;;15.85;7.55;;;;;;;-1.43;83.37;98135.25;5054253;28;20097;-47
2022/12/14 07:48:05;;;;;;;15.43;7.88;;;;;;;-1.38;83.47;98135.19;5051537;28;20051;-45
2022/12/14 07:50:31;;;;;;;18.40;7.88;;;;;;;-1.32;83.54;98135.97;5096495;28;20032;-45
2022/12/14 07:52:57;;;;;;;16.80;8.07;;;;;;;-1.34;83.36;98124.94;5082643;28;20124;-42
2022/12/14 07:55:24;;;;;;;18.58;7.70;;;;;;;-1.22;83.94;98133.28;5072818;28;20107;-44
2022/12/14 07:57:50;;;;;;;23.08;9.32;;;;;;;-1.14;83.60;98137.44;5095351;28;20435;-43
2022/12/14 08:00:17;;;;;;;18.80;8.25;;;;;;;-1.18;83.90;98140.03;5109429;28;20120;-43
2022/12/14 08:02:43;;;;;;;16.48;7.65;;;;;;;-1.38;84.16;98113.09;5104092;28;20426;-43
2022/12/14 08:05:08;;;;;;;17.45;8.50;;;;;;;-1.11;84.57;98156.97;5071878;28;20051;-43
2022/12/14 08:07:34;;;;;;;18.17;7.88;;;;;;;-1.28;84.72;98126.56;5074092;28;20040;-43
2022/12/14 08:10:00;;;;;;;15.80;8.13;;;;;;;-1.26;84.63;98149.50;5109214;28;20035;-43
2022/12/14 08:12:26;;;;;;;20.88;8.18;;;;;;;-1.35;85.07;98153.81;5107376;28;20121;-43
2022/12/14 08:14:52;;;;;;;23.15;9.10;;;;;;;-1.40;85.03;98149.63;5072298;28;20367;-43
2022/12/14 08:17:18;;;;;;;21.15;8.52;;;;;;;-1.65;84.14;98151.63;5089121;28;20042;-45
2022/12/14 08:19:44;;;;;;;17.40;8.25;;;;;;;-1.74;84.27;98152.56;5122239;27;20036;-44
2022/12/14 08:22:10;;;;;;;19.98;9.00;;;;;;;-1.99;84.30;98129.91;5105347;28;20047;-44
2022/12/14 08:24:36;;;;;;;22.65;9.48;;;;;;;-1.75;84.49;98165.31;5088743;28;20663;-43
2022/12/14 08:27:02;;;;;;;19.63;8.93;;;;;;;-1.65;84.16;98169.44;5091091;28;20054;-42
2022/12/14 08:29:28;;;;;;;20.98;9.30;;;;;;;-1.65;84.11;98172.00;5109838;28;20417;-42
2022/12/14 08:31:54;;;;;;;24.42;10.40;;;;;;;-1.77;84.33;98160.22;5108725;28;20035;-44
2022/12/14 08:34:21;;;;;;;16.80;8.25;;;;;;;-1.70;84.22;98145.72;5094658;28;20047;-45
2022/12/14 08:36:47;;;;;;;19.83;8.77;;;;;;;-1.41;84.51;98175.97;5121964;27;20046;-43
2022/12/14 08:39:13;;;;;;;21.55;8.85;;;;;;;-1.50;83.70;98176.09;5067980;28;20048;-45
2022/12/14 08:41:39;;;;;;;16.90;7.70;;;;;;;-1.46;83.95;98175.19;5059326;28;20106;-44
2022/12/14 08:44:05;;;;;;;17.77;7.50;;;;;;;-1.78;83.42;98148.34;5067109;28;20060;-43
2022/12/14 08:46:32;;;;;;;16.85;8.45;;;;;;;-1.74;83.12;98180.59;5082325;28;20678;-44
2022/12/14 08:48:58;;;;;;;14.80;7.18;;;;;;;-1.67;83.05;98188.19;5087719;28;20044;-43
2022/12/14 08:51:25;;;;;;;19.58;7.47;;;;;;;-1.82;83.21;98195.09;5088238;28;20065;-44
2022/12/14 08:53:52;;;;;;;18.08;8.40;;;;;;;-1.88;82.82;98196.84;5104949;28;20040;-43
2022/12/14 08:56:24;;;;;;;21.35;8.57;;;;;;;-1.84;82.94;98206.16;5089466;28;20050;-43
2022/12/14 08:58:50;;;;;;;19.98;8.55;;;;;;;-2.02;82.98;98180.84;5071326;28;20056;-43
2022/12/14 09:01:19;;;;;;;18.60;8.38;;;;;;;-1.82;82.92;98212.91;5088201;28;20538;-42
2022/12/14 09:03:45;;;;;;;19.30;9.05;;;;;;;-2.01;83.19;98193.56;5070764;28;20165;-42
2022/12/14 09:06:15;;;;;;;19.17;7.45;;;;;;;-2.02;83.13;98189.31;5089420;28;20101;-42
2022/12/14 09:08:41;;;;;;;18.65;8.45;;;;;;;-1.95;82.64;98235.97;5068165;28;20067;-43
2022/12/14 09:11:11;;;;;;;17.15;7.85;;;;;;;-2.41;82.41;98180.31;5084714;28;20536;-43
2022/12/14 09:13:37;;;;;;;16.23;8.15;;;;;;;-2.02;82.31;98244.50;5094215;28;20150;-42
2022/12/14 09:16:09;;;;;;;17.77;7.78;;;;;;;-1.96;82.61;98241.91;5063861;28;20067;-43
2022/12/14 09:18:35;;;;;;;13.20;5.60;;;;;;;-1.95;81.97;98246.13;5077929;28;20051;-43
2022/12/14 09:21:01;;;;;;;13.52;6.07;;;;;;;-2.10;81.71;98246.25;5050504;28;20135;-43
2022/12/14 09:23:29;;;;;;;17.33;7.50;;;;;;;-2.20;81.45;98255.66;5083792;28;20534;-44
2022/12/14 09:25:59;;;;;;;8.30;4.20;;;;;;;-2.16;81.52;98255.63;5087948;28;20645;-42
2022/12/14 09:28:26;;;;;;;17.13;7.18;;;;;;;-2.21;81.19;98266.69;5091873;28;20598;-43
2022/12/14 09:30:56;;;;;;;21.10;8.00;;;;;;;-2.24;81.17;98228.53;5092824;28;20157;-43
2022/12/14 09:33:23;;;;;;;14.20;6.18;;;;;;;-2.30;80.36;98231.09;5091804;28;20046;-43
2022/12/14 09:35:49;;;;;;;20.55;8.82;;;;;;;-2.11;80.39;98275.09;5092495;28;20040;-44
2022/12/14 09:38:15;;;;;;;16.38;7.95;;;;;;;-2.22;80.41;98263.31;5093780;28;20124;-44
2022/12/14 09:40:44;;;;;;;13.32;5.35;;;;;;;-2.08;80.28;98283.56;5089571;28;20530;-43
2022/12/14 09:43:33;;;;;;;15.18;7.18;;;;;;;-2.08;80.24;98285.25;5078897;28;20093;-42
2022/12/14 09:46:40;;;;;;;17.25;6.85;;;;;;;-2.17;80.36;98286.19;5094082;28;20044;-43
2022/12/14 09:49:19;;;;;;;17.27;7.70;;;;;;;-2.14;80.66;98294.63;5012928;28;20057;-42
2022/12/14 09:51:45;;;;;;;19.05;8.63;;;;;;;-2.15;81.07;98275.13;5048882;28;20059;-44
2022/12/14 09:54:14;;;;;;;19.85;7.55;;;;;;;-2.15;80.62;98274.28;5094057;28;20055;-42
2022/12/14 09:56:41;;;;;;;17.92;8.18;;;;;;;-2.02;80.81;98303.91;5091554;28;20166;-43
2022/12/14 09:59:13;;;;;;;14.07;7.32;;;;;;;-1.94;80.95;98322.53;5083693;28;20043;-44
2022/12/14 10:02:00;;;;;;;19.50;8.07;;;;;;;-1.82;81.16;98329.22;5111684;28;20438;-43
2022/12/14 10:04:55;;;;;;;13.35;5.82;;;;;;;-1.92;81.08;98331.00;5106343;28;20058;-43
2022/12/14 10:07:47;;;;;;;18.20;8.07;;;;;;;-1.99;81.14;98333.59;5040876;28;20654;-42
2022/12/14 10:11:02;;;;;;;15.77;7.53;;;;;;;-2.01;81.17;98341.22;5111776;28;20031;-44
2022/12/14 10:13:38;;;;;;;10.40;4.80;;;;;;;-2.16;81.40;98315.88;5070320;28;20555;-44
2022/12/14 10:16:12;;;;;;;14.68;7.30;;;;;;;-1.85;81.11;98355.56;5085061;28;20035;-43
2022/12/14 10:18:48;;;;;;;15.25;7.90;;;;;;;-1.73;80.86;98358.00;5092144;28;20051;-43
2022/12/14 10:21:18;;;;;;;18.02;8.10;;;;;;;-1.71;80.93;98355.47;5092322;28;20040;-43
2022/12/14 10:23:53;;;;;;;10.20;4.43;;;;;;;-1.44;80.79;98362.06;5075127;28;20071;-43
2022/12/14 10:26:22;;;;;;;12.70;6.00;;;;;;;-1.42;80.43;98335.72;5093805;28;20065;-41
2022/12/14 10:29:08;;;;;;;15.90;6.70;;;;;;;-1.20;80.04;98371.22;5107256;28;20040;-50
2022/12/14 10:31:45;;;;;;;15.07;7.00;;;;;;;-0.99;80.12;98376.94;5091813;28;20044;-43
2022/12/14 10:34:17;;;;;;;14.68;7.13;;;;;;;-1.00;79.61;98388.03;5090051;28;20032;-45
2022/12/14 10:36:51;;;;;;;17.00;6.40;;;;;;;-1.03;79.55;98388.06;5092071;28;20552;-43
2022/12/14 10:39:21;;;;;;;12.80;5.72;;;;;;;-0.95;79.83;98398.19;5089350;28;20039;-42
2022/12/14 10:41:58;;;;;;;10.25;4.15;;;;;;;-0.97;79.65;98402.44;5091521;28;20047;-48
2022/12/14 10:44:54;;;;;;;11.35;4.53;;;;;;;-1.10;79.80;98411.09;5090170;28;20181;-42
2022/12/14 10:47:39;;;;;;;13.65;5.88;;;;;;;-1.08;79.89;98412.75;5091714;28;20048;-41
2022/12/14 10:50:23;;;;;;;9.10;4.47;;;;;;;-1.04;79.95;98421.22;5090435;28;20096;-43
2022/12/14 10:52:52;;;;;;;9.25;4.07;;;;;;;-1.22;79.62;98409.47;5073364;28;20040;-43
2022/12/14 10:55:23;;;;;;;7.03;3.10;;;;;;;-1.18;79.64;98425.59;5070899;28;20093;-43
2022/12/14 10:57:49;;;;;;;9.82;4.60;;;;;;;-1.06;79.54;98428.03;5071097;28;20056;-42
2022/12/14 11:00:17;;;;;;;9.90;3.95;;;;;;;-0.97;79.58;98444.13;5095981;28;20774;-43
2022/12/14 11:02:46;;;;;;;8.48;4.03;;;;;;;-0.86;79.59;98447.41;5093478;28;20088;-43
2022/12/14 11:05:53;;;;;;;10.48;4.35;;;;;;;-0.83;79.17;98455.88;5099389;28;20036;-42
2022/12/14 11:08:45;;;;;;;6.28;3.47;;;;;;;-0.77;79.31;98483.91;5090226;28;20036;-42
2022/12/14 11:11:18;;;;;;;7.38;3.35;;;;;;;-0.94;79.22;98495.09;5091542;28;20499;-43
2022/12/14 11:13:54;;;;;;;4.30;2.10;;;;;;;-1.08;79.17;98490.94;5071999;28;20127;-44
2022/12/14 11:16:24;;;;;;;6.43;3.10;;;;;;;-1.02;79.61;98491.75;5090295;28;20040;-42
2022/12/14 11:19:00;;;;;;;11.25;3.85;;;;;;;-0.82;79.73;98498.41;5089444;28;20435;-43
2022/12/14 11:21:37;;;;;;;7.50;2.72;;;;;;;-0.63;79.72;98500.78;5092813;28;20050;-43
2022/12/14 11:24:04;;;;;;;5.32;2.30;;;;;;;-0.74;79.18;98492.41;5110024;28;20043;-44
2022/12/14 11:26:39;;;;;;;4.70;1.77;;;;;;;-0.61;78.86;98523.75;5090315;28;20036;-44
2022/12/14 11:29:17;;;;;;;1.90;1.00;;;;;;;-0.63;77.90;98539.06;5090638;28;20039;-43
2022/12/14 11:31:53;;;;;;;3.88;1.55;;;;;;;-0.65;77.65;98550.16;5070255;28;20150;-44
2022/12/14 11:34:28;;;;;;;2.20;1.00;;;;;;;-0.82;77.45;98545.16;5069182;28;20039;-43
2022/12/14 11:36:55;;;;;;;1.25;0.88;;;;;;;-0.89;76.75;98559.66;5088787;28;20151;-44
2022/12/14 11:39:24;;;;;;;3.15;1.20;;;;;;;-1.03;76.84;98560.63;5072455;28;20040;-44
2022/12/14 11:42:00;;;;;;;3.33;1.48;;;;;;;-1.00;77.06;98566.56;5096466;28;20127;-45
2022/12/14 11:44:36;;;;;;;2.50;1.30;;;;;;;-0.88;76.98;98571.56;5088937;28;20047;-42
2022/12/14 11:47:08;;;;;;;3.22;1.58;;;;;;;-0.85;77.41;98580.94;5071590;28;20036;-43
2022/12/14 11:49:37;;;;;;;1.67;0.98;;;;;;;-0.78;76.82;98594.47;5073923;28;20494;-44
2022/12/14 11:52:03;;;;;;;1.30;0.80;;;;;;;-1.03;76.17;98603.97;5092072;28;20134;-44
2022/12/14 11:54:35;;;;;;;2.00;1.30;;;;;;;-1.15;76.62;98596.41;5108746;28;20134;-43
2022/12/14 11:57:05;;;;;;;1.23;0.93;;;;;;;-1.04;76.25;98598.03;5072113;28;20048;-42
2022/12/14 11:59:44;;;;;;;2.60;1.33;;;;;;;-1.07;76.02;98623.56;5089949;28;20129;-43